sensor_id;sensor_type;location;lat;lon;timestamp;P1;durP1;ratioP1;P2;durP2;ratioP2
57593;SDS011;43423;46.510;6.686;2023-02-05T00:00:17;19.58;;;9.13;;
57593;SDS011;43423;46.510;6.686;2023-02-05T00:03:03;19.02;;;9.02;;
57593;SDS011;43423;46.510;6.686;2023-02-05T00:05:29;20.92;;;9.52;;
57593;SDS011;43423;46.510;6.686;2023-02-05T00:07:54;18.23;;;9.07;;
57593;SDS011;43423;46.510;6.686;2023-02-05T00:10:20;22.75;;;10.30;;
57593;SDS011;43423;46.510;6.686;2023-02-05T00:12:45;21.17;;;9.32;;
57593;SDS011;43423;46.510;6.686;2023-02-05T00:15:11;22.35;;;10.05;;
57593;SDS011;43423;46.510;6.686;2023-02-05T00:17:36;21.90;;;10.18;;
57593;SDS011;43423;46.510;6.686;2023-02-05T00:20:05;22.73;;;10.70;;
57593;SDS011;43423;46.510;6.686;2023-02-05T00:22:31;25.48;;;10.70;;
57593;SDS011;43423;46.510;6.686;2023-02-05T00:24:57;23.67;;;10.75;;
57593;SDS011;43423;46.510;6.686;2023-02-05T00:27:22;20.83;;;9.88;;
57593;SDS011;43423;46.510;6.686;2023-02-05T00:29:48;24.73;;;9.93;;
57593;SDS011;43423;46.510;6.686;2023-02-05T00:32:13;21.23;;;9.32;;
57593;SDS011;43423;46.510;6.686;2023-02-05T00:34:39;24.17;;;10.32;;
57593;SDS011;43423;46.510;6.686;2023-02-05T00:37:04;20.35;;;9.52;;
57593;SDS011;43423;46.510;6.686;2023-02-05T00:39:30;21.27;;;9.38;;
57593;SDS011;43423;46.510;6.686;2023-02-05T00:41:55;21.02;;;9.52;;
57593;SDS011;43423;46.510;6.686;2023-02-05T00:44:21;21.60;;;9.90;;
57593;SDS011;43423;46.510;6.686;2023-02-05T00:46:46;20.83;;;9.15;;
57593;SDS011;43423;46.510;6.686;2023-02-05T00:49:12;21.65;;;9.55;;
57593;SDS011;43423;46.510;6.686;2023-02-05T00:51:38;25.00;;;10.13;;
57593;SDS011;43423;46.510;6.686;2023-02-05T00:54:03;20.67;;;8.73;;
57593;SDS011;43423;46.510;6.686;2023-02-05T00:56:29;22.95;;;9.55;;
57593;SDS011;43423;46.510;6.686;2023-02-05T00:58:54;24.23;;;8.43;;
57593;SDS011;43423;46.510;6.686;2023-02-05T01:01:21;24.70;;;10.23;;
57593;SDS011;43423;46.510;6.686;2023-02-05T01:03:47;23.13;;;9.70;;
57593;SDS011;43423;46.510;6.686;2023-02-05T01:06:12;25.02;;;9.55;;
57593;SDS011;43423;46.510;6.686;2023-02-05T01:08:38;23.10;;;9.77;;
57593;SDS011;43423;46.510;6.686;2023-02-05T01:11:07;25.23;;;9.90;;
57593;SDS011;43423;46.510;6.686;2023-02-05T01:13:34;23.63;;;10.40;;
57593;SDS011;43423;46.510;6.686;2023-02-05T01:16:00;27.30;;;11.05;;
57593;SDS011;43423;46.510;6.686;2023-02-05T01:18:26;20.67;;;10.00;;
57593;SDS011;43423;46.510;6.686;2023-02-05T01:20:51;23.75;;;9.70;;
57593;SDS011;43423;46.510;6.686;2023-02-05T01:23:17;27.27;;;9.75;;
57593;SDS011;43423;46.510;6.686;2023-02-05T01:25:42;22.52;;;10.68;;
57593;SDS011;43423;46.510;6.686;2023-02-05T01:28:08;27.38;;;10.63;;
57593;SDS011;43423;46.510;6.686;2023-02-05T01:30:34;22.83;;;10.25;;
57593;SDS011;43423;46.510;6.686;2023-02-05T01:33:00;21.05;;;9.65;;
57593;SDS011;43423;46.510;6.686;2023-02-05T01:35:26;23.08;;;11.30;;
57593;SDS011;43423;46.510;6.686;2023-02-05T01:37:51;28.75;;;10.30;;
57593;SDS011;43423;46.510;6.686;2023-02-05T01:40:17;30.77;;;11.35;;
57593;SDS011;43423;46.510;6.686;2023-02-05T01:42:43;23.38;;;10.35;;
57593;SDS011;43423;46.510;6.686;2023-02-05T01:47:47;30.48;;;10.27;;
57593;SDS011;43423;46.510;6.686;2023-02-05T01:50:18;24.70;;;10.38;;
57593;SDS011;43423;46.510;6.686;2023-02-05T01:52:47;25.77;;;10.85;;
57593;SDS011;43423;46.510;6.686;2023-02-05T01:55:14;28.77;;;11.80;;
57593;SDS011;43423;46.510;6.686;2023-02-05T01:57:40;24.17;;;10.68;;
57593;SDS011;43423;46.510;6.686;2023-02-05T02:00:08;29.98;;;11.68;;
57593;SDS011;43423;46.510;6.686;2023-02-05T02:02:34;29.58;;;10.52;;
57593;SDS011;43423;46.510;6.686;2023-02-05T02:05:05;26.27;;;10.48;;
57593;SDS011;43423;46.510;6.686;2023-02-05T02:07:34;27.33;;;11.68;;
57593;SDS011;43423;46.510;6.686;2023-02-05T02:10:00;26.83;;;11.00;;
57593;SDS011;43423;46.510;6.686;2023-02-05T02:12:27;29.02;;;12.00;;
57593;SDS011;43423;46.510;6.686;2023-02-05T02:15:00;31.85;;;12.18;;
57593;SDS011;43423;46.510;6.686;2023-02-05T02:17:29;34.30;;;11.82;;
57593;SDS011;43423;46.510;6.686;2023-02-05T02:20:04;25.05;;;10.85;;
57593;SDS011;43423;46.510;6.686;2023-02-05T02:28:29;28.52;;;11.70;;
57593;SDS011;43423;46.510;6.686;2023-02-05T02:31:07;23.23;;;10.60;;
57593;SDS011;43423;46.510;6.686;2023-02-05T02:33:35;24.20;;;10.52;;
57593;SDS011;43423;46.510;6.686;2023-02-05T02:36:21;26.02;;;10.50;;
57593;SDS011;43423;46.510;6.686;2023-02-05T02:38:54;24.95;;;11.27;;
57593;SDS011;43423;46.510;6.686;2023-02-05T02:44:34;28.13;;;10.43;;
57593;SDS011;43423;46.510;6.686;2023-02-05T02:47:17;26.60;;;10.88;;
57593;SDS011;43423;46.510;6.686;2023-02-05T02:49:48;30.52;;;11.63;;
57593;SDS011;43423;46.510;6.686;2023-02-05T02:52:18;27.52;;;11.70;;
57593;SDS011;43423;46.510;6.686;2023-02-05T02:54:47;25.60;;;11.27;;
57593;SDS011;43423;46.510;6.686;2023-02-05T02:57:16;26.60;;;11.57;;
57593;SDS011;43423;46.510;6.686;2023-02-05T02:59:44;30.50;;;11.52;;
57593;SDS011;43423;46.510;6.686;2023-02-05T03:02:12;32.80;;;11.45;;
57593;SDS011;43423;46.510;6.686;2023-02-05T03:04:41;29.90;;;10.77;;
57593;SDS011;43423;46.510;6.686;2023-02-05T03:09:59;28.10;;;10.55;;
57593;SDS011;43423;46.510;6.686;2023-02-05T03:12:31;24.85;;;9.80;;
57593;SDS011;43423;46.510;6.686;2023-02-05T03:14:57;21.13;;;10.15;;
57593;SDS011;43423;46.510;6.686;2023-02-05T03:17:23;26.42;;;10.57;;
57593;SDS011;43423;46.510;6.686;2023-02-05T03:19:52;27.88;;;10.57;;
57593;SDS011;43423;46.510;6.686;2023-02-05T03:22:23;28.33;;;10.93;;
57593;SDS011;43423;46.510;6.686;2023-02-05T03:24:49;30.08;;;11.05;;
57593;SDS011;43423;46.510;6.686;2023-02-05T03:27:15;27.77;;;10.40;;
57593;SDS011;43423;46.510;6.686;2023-02-05T03:29:41;23.77;;;9.82;;
57593;SDS011;43423;46.510;6.686;2023-02-05T03:42:55;21.10;;;9.52;;
57593;SDS011;43423;46.510;6.686;2023-02-05T03:48:32;22.92;;;8.68;;
57593;SDS011;43423;46.510;6.686;2023-02-05T03:59:17;25.20;;;9.88;;
57593;SDS011;43423;46.510;6.686;2023-02-05T04:01:44;22.52;;;8.48;;
57593;SDS011;43423;46.510;6.686;2023-02-05T04:04:11;23.92;;;9.50;;
57593;SDS011;43423;46.510;6.686;2023-02-05T04:06:37;21.40;;;9.77;;
57593;SDS011;43423;46.510;6.686;2023-02-05T04:09:03;24.75;;;9.60;;
57593;SDS011;43423;46.510;6.686;2023-02-05T04:11:29;23.38;;;8.95;;
57593;SDS011;43423;46.510;6.686;2023-02-05T04:13:57;20.67;;;9.50;;
57593;SDS011;43423;46.510;6.686;2023-02-05T04:16:23;26.00;;;9.30;;
57593;SDS011;43423;46.510;6.686;2023-02-05T04:18:48;24.38;;;9.45;;
57593;SDS011;43423;46.510;6.686;2023-02-05T04:21:14;25.65;;;9.23;;
57593;SDS011;43423;46.510;6.686;2023-02-05T04:23:39;25.27;;;9.73;;
57593;SDS011;43423;46.510;6.686;2023-02-05T04:26:05;24.23;;;9.82;;
57593;SDS011;43423;46.510;6.686;2023-02-05T04:28:30;23.02;;;10.25;;
57593;SDS011;43423;46.510;6.686;2023-02-05T04:30:56;22.02;;;9.77;;
57593;SDS011;43423;46.510;6.686;2023-02-05T04:33:21;25.75;;;9.70;;
57593;SDS011;43423;46.510;6.686;2023-02-05T04:35:47;24.80;;;10.60;;
57593;SDS011;43423;46.510;6.686;2023-02-05T04:38:12;23.48;;;9.57;;
57593;SDS011;43423;46.510;6.686;2023-02-05T04:40:38;27.75;;;10.23;;
57593;SDS011;43423;46.510;6.686;2023-02-05T04:43:04;24.63;;;10.18;;
57593;SDS011;43423;46.510;6.686;2023-02-05T04:45:30;26.27;;;9.75;;
57593;SDS011;43423;46.510;6.686;2023-02-05T04:47:58;22.63;;;9.38;;
57593;SDS011;43423;46.510;6.686;2023-02-05T04:50:24;26.65;;;10.48;;
57593;SDS011;43423;46.510;6.686;2023-02-05T04:52:50;20.27;;;9.77;;
57593;SDS011;43423;46.510;6.686;2023-02-05T04:55:16;21.73;;;9.48;;
57593;SDS011;43423;46.510;6.686;2023-02-05T04:57:41;28.85;;;10.60;;
57593;SDS011;43423;46.510;6.686;2023-02-05T05:00:07;22.77;;;9.07;;
57593;SDS011;43423;46.510;6.686;2023-02-05T05:02:33;25.00;;;9.25;;
57593;SDS011;43423;46.510;6.686;2023-02-05T05:04:59;23.77;;;9.30;;
57593;SDS011;43423;46.510;6.686;2023-02-05T05:07:24;24.63;;;9.88;;
57593;SDS011;43423;46.510;6.686;2023-02-05T05:09:50;25.63;;;9.63;;
57593;SDS011;43423;46.510;6.686;2023-02-05T05:12:15;23.60;;;10.20;;
57593;SDS011;43423;46.510;6.686;2023-02-05T05:14:41;24.98;;;9.40;;
57593;SDS011;43423;46.510;6.686;2023-02-05T05:17:06;21.75;;;9.43;;
57593;SDS011;43423;46.510;6.686;2023-02-05T05:19:32;19.65;;;9.32;;
57593;SDS011;43423;46.510;6.686;2023-02-05T05:21:58;29.00;;;10.02;;
57593;SDS011;43423;46.510;6.686;2023-02-05T05:24:23;27.10;;;9.68;;
57593;SDS011;43423;46.510;6.686;2023-02-05T05:26:49;26.13;;;9.43;;
57593;SDS011;43423;46.510;6.686;2023-02-05T05:29:14;23.92;;;9.25;;
57593;SDS011;43423;46.510;6.686;2023-02-05T05:31:40;21.75;;;8.77;;
57593;SDS011;43423;46.510;6.686;2023-02-05T05:34:06;17.80;;;7.95;;
57593;SDS011;43423;46.510;6.686;2023-02-05T05:36:32;23.38;;;9.25;;
57593;SDS011;43423;46.510;6.686;2023-02-05T05:38:58;22.35;;;9.75;;
57593;SDS011;43423;46.510;6.686;2023-02-05T05:41:43;24.63;;;8.88;;
57593;SDS011;43423;46.510;6.686;2023-02-05T05:44:27;21.35;;;8.80;;
57593;SDS011;43423;46.510;6.686;2023-02-05T05:46:53;21.92;;;9.57;;
57593;SDS011;43423;46.510;6.686;2023-02-05T05:49:18;27.63;;;9.68;;
57593;SDS011;43423;46.510;6.686;2023-02-05T05:51:44;23.10;;;8.45;;
57593;SDS011;43423;46.510;6.686;2023-02-05T05:54:09;23.77;;;8.70;;
57593;SDS011;43423;46.510;6.686;2023-02-05T05:56:35;22.92;;;8.90;;
57593;SDS011;43423;46.510;6.686;2023-02-05T05:59:00;25.45;;;9.32;;
57593;SDS011;43423;46.510;6.686;2023-02-05T06:01:26;26.75;;;8.98;;
57593;SDS011;43423;46.510;6.686;2023-02-05T06:03:52;22.85;;;9.45;;
57593;SDS011;43423;46.510;6.686;2023-02-05T06:06:18;23.15;;;8.77;;
57593;SDS011;43423;46.510;6.686;2023-02-05T06:08:43;25.90;;;9.75;;
57593;SDS011;43423;46.510;6.686;2023-02-05T06:11:09;20.17;;;8.82;;
57593;SDS011;43423;46.510;6.686;2023-02-05T06:13:35;20.30;;;8.88;;
57593;SDS011;43423;46.510;6.686;2023-02-05T06:16:01;19.42;;;8.57;;
57593;SDS011;43423;46.510;6.686;2023-02-05T06:18:26;19.92;;;8.48;;
57593;SDS011;43423;46.510;6.686;2023-02-05T06:20:52;21.65;;;8.73;;
57593;SDS011;43423;46.510;6.686;2023-02-05T06:23:18;25.70;;;9.23;;
57593;SDS011;43423;46.510;6.686;2023-02-05T06:25:43;24.55;;;9.82;;
57593;SDS011;43423;46.510;6.686;2023-02-05T06:28:09;28.92;;;9.55;;
57593;SDS011;43423;46.510;6.686;2023-02-05T06:30:34;25.15;;;8.98;;
57593;SDS011;43423;46.510;6.686;2023-02-05T06:33:00;20.40;;;8.85;;
57593;SDS011;43423;46.510;6.686;2023-02-05T06:35:26;22.25;;;8.88;;
57593;SDS011;43423;46.510;6.686;2023-02-05T06:37:51;26.30;;;9.90;;
57593;SDS011;43423;46.510;6.686;2023-02-05T06:40:17;24.80;;;9.43;;
57593;SDS011;43423;46.510;6.686;2023-02-05T06:42:45;27.27;;;9.32;;
57593;SDS011;43423;46.510;6.686;2023-02-05T06:45:10;23.08;;;9.20;;
57593;SDS011;43423;46.510;6.686;2023-02-05T06:47:36;23.50;;;9.73;;
57593;SDS011;43423;46.510;6.686;2023-02-05T06:50:03;21.48;;;8.90;;
57593;SDS011;43423;46.510;6.686;2023-02-05T06:52:29;21.17;;;9.90;;
57593;SDS011;43423;46.510;6.686;2023-02-05T06:54:55;20.88;;;9.63;;
57593;SDS011;43423;46.510;6.686;2023-02-05T06:57:20;23.45;;;9.60;;
57593;SDS011;43423;46.510;6.686;2023-02-05T06:59:46;24.00;;;9.45;;
57593;SDS011;43423;46.510;6.686;2023-02-05T07:02:12;21.58;;;10.02;;
57593;SDS011;43423;46.510;6.686;2023-02-05T07:04:38;19.13;;;8.40;;
57593;SDS011;43423;46.510;6.686;2023-02-05T07:07:03;25.65;;;9.05;;
57593;SDS011;43423;46.510;6.686;2023-02-05T07:09:29;20.50;;;8.52;;
57593;SDS011;43423;46.510;6.686;2023-02-05T07:11:54;27.60;;;9.85;;
57593;SDS011;43423;46.510;6.686;2023-02-05T07:14:20;27.15;;;9.35;;
57593;SDS011;43423;46.510;6.686;2023-02-05T07:16:45;23.15;;;8.80;;
57593;SDS011;43423;46.510;6.686;2023-02-05T07:19:11;26.30;;;9.85;;
57593;SDS011;43423;46.510;6.686;2023-02-05T07:21:36;21.90;;;8.98;;
57593;SDS011;43423;46.510;6.686;2023-02-05T07:24:02;21.35;;;9.10;;
57593;SDS011;43423;46.510;6.686;2023-02-05T07:26:27;19.58;;;8.95;;
57593;SDS011;43423;46.510;6.686;2023-02-05T07:28:53;20.40;;;8.38;;
57593;SDS011;43423;46.510;6.686;2023-02-05T07:31:18;26.10;;;9.50;;
57593;SDS011;43423;46.510;6.686;2023-02-05T07:33:45;23.88;;;9.93;;
57593;SDS011;43423;46.510;6.686;2023-02-05T07:36:12;19.05;;;9.38;;
57593;SDS011;43423;46.510;6.686;2023-02-05T07:38:40;22.67;;;9.25;;
57593;SDS011;43423;46.510;6.686;2023-02-05T07:41:07;22.42;;;8.35;;
57593;SDS011;43423;46.510;6.686;2023-02-05T07:43:35;19.98;;;8.88;;
57593;SDS011;43423;46.510;6.686;2023-02-05T07:46:02;18.60;;;8.77;;
57593;SDS011;43423;46.510;6.686;2023-02-05T07:48:30;21.92;;;9.38;;
57593;SDS011;43423;46.510;6.686;2023-02-05T07:50:55;22.08;;;8.75;;
57593;SDS011;43423;46.510;6.686;2023-02-05T07:53:21;26.55;;;9.02;;
57593;SDS011;43423;46.510;6.686;2023-02-05T07:55:47;24.65;;;9.13;;
57593;SDS011;43423;46.510;6.686;2023-02-05T07:58:12;27.02;;;10.23;;
57593;SDS011;43423;46.510;6.686;2023-02-05T08:00:38;23.60;;;9.48;;
57593;SDS011;43423;46.510;6.686;2023-02-05T08:03:04;23.27;;;10.18;;
57593;SDS011;43423;46.510;6.686;2023-02-05T08:05:29;23.80;;;10.00;;
57593;SDS011;43423;46.510;6.686;2023-02-05T08:07:55;23.25;;;9.07;;
57593;SDS011;43423;46.510;6.686;2023-02-05T08:10:20;22.98;;;9.35;;
57593;SDS011;43423;46.510;6.686;2023-02-05T08:12:46;22.15;;;8.75;;
57593;SDS011;43423;46.510;6.686;2023-02-05T08:15:12;23.80;;;9.23;;
57593;SDS011;43423;46.510;6.686;2023-02-05T08:17:38;23.00;;;8.70;;
57593;SDS011;43423;46.510;6.686;2023-02-05T08:20:04;22.88;;;9.85;;
57593;SDS011;43423;46.510;6.686;2023-02-05T08:22:34;22.08;;;9.00;;
57593;SDS011;43423;46.510;6.686;2023-02-05T08:25:01;22.88;;;9.35;;
57593;SDS011;43423;46.510;6.686;2023-02-05T08:27:30;26.55;;;7.85;;
57593;SDS011;43423;46.510;6.686;2023-02-05T08:29:56;23.00;;;9.05;;
57593;SDS011;43423;46.510;6.686;2023-02-05T08:32:22;23.77;;;9.40;;
57593;SDS011;43423;46.510;6.686;2023-02-05T08:34:47;19.55;;;8.93;;
57593;SDS011;43423;46.510;6.686;2023-02-05T08:37:13;21.13;;;9.52;;
57593;SDS011;43423;46.510;6.686;2023-02-05T08:39:38;21.13;;;9.18;;
57593;SDS011;43423;46.510;6.686;2023-02-05T08:42:04;21.08;;;9.55;;
57593;SDS011;43423;46.510;6.686;2023-02-05T08:44:29;25.02;;;10.25;;
57593;SDS011;43423;46.510;6.686;2023-02-05T08:46:56;23.45;;;9.88;;
57593;SDS011;43423;46.510;6.686;2023-02-05T08:49:21;22.20;;;9.95;;
57593;SDS011;43423;46.510;6.686;2023-02-05T08:51:47;27.50;;;9.68;;
57593;SDS011;43423;46.510;6.686;2023-02-05T08:54:12;26.88;;;9.82;;
57593;SDS011;43423;46.510;6.686;2023-02-05T08:56:42;23.88;;;9.90;;
57593;SDS011;43423;46.510;6.686;2023-02-05T08:59:09;27.05;;;9.35;;
57593;SDS011;43423;46.510;6.686;2023-02-05T09:01:36;27.17;;;10.68;;
57593;SDS011;43423;46.510;6.686;2023-02-05T09:04:02;25.13;;;10.32;;
57593;SDS011;43423;46.510;6.686;2023-02-05T09:06:28;24.52;;;9.88;;
57593;SDS011;43423;46.510;6.686;2023-02-05T09:08:54;22.95;;;9.57;;
57593;SDS011;43423;46.510;6.686;2023-02-05T09:11:21;23.23;;;8.50;;
57593;SDS011;43423;46.510;6.686;2023-02-05T09:13:48;22.95;;;8.77;;
57593;SDS011;43423;46.510;6.686;2023-02-05T09:16:14;17.80;;;8.05;;
57593;SDS011;43423;46.510;6.686;2023-02-05T09:18:39;23.40;;;9.20;;
57593;SDS011;43423;46.510;6.686;2023-02-05T09:21:06;19.77;;;9.15;;
57593;SDS011;43423;46.510;6.686;2023-02-05T09:23:33;17.98;;;9.10;;
57593;SDS011;43423;46.510;6.686;2023-02-05T09:25:59;24.83;;;10.10;;
57593;SDS011;43423;46.510;6.686;2023-02-05T09:28:25;18.75;;;9.60;;
57593;SDS011;43423;46.510;6.686;2023-02-05T09:30:51;26.70;;;9.70;;
57593;SDS011;43423;46.510;6.686;2023-02-05T09:33:16;22.38;;;8.23;;
57593;SDS011;43423;46.510;6.686;2023-02-05T09:35:42;21.73;;;8.48;;
57593;SDS011;43423;46.510;6.686;2023-02-05T09:38:08;20.08;;;8.25;;
57593;SDS011;43423;46.510;6.686;2023-02-05T09:40:54;20.10;;;8.50;;
57593;SDS011;43423;46.510;6.686;2023-02-05T09:46:26;25.10;;;10.75;;
57593;SDS011;43423;46.510;6.686;2023-02-05T09:51:42;28.23;;;10.52;;
57593;SDS011;43423;46.510;6.686;2023-02-05T09:56:47;19.83;;;9.13;;
57593;SDS011;43423;46.510;6.686;2023-02-05T09:59:15;22.55;;;9.57;;
57593;SDS011;43423;46.510;6.686;2023-02-05T10:01:45;28.50;;;10.55;;
57593;SDS011;43423;46.510;6.686;2023-02-05T10:04:15;29.58;;;10.70;;
57593;SDS011;43423;46.510;6.686;2023-02-05T10:07:00;21.92;;;10.45;;
57593;SDS011;43423;46.510;6.686;2023-02-05T10:18:18;23.75;;;10.80;;
57593;SDS011;43423;46.510;6.686;2023-02-05T10:20:59;27.65;;;11.07;;
57593;SDS011;43423;46.510;6.686;2023-02-05T10:26:14;27.27;;;12.25;;
57593;SDS011;43423;46.510;6.686;2023-02-05T10:36:40;21.58;;;9.60;;
57593;SDS011;43423;46.510;6.686;2023-02-05T10:39:14;21.85;;;10.05;;
57593;SDS011;43423;46.510;6.686;2023-02-05T10:46:51;23.55;;;9.98;;
57593;SDS011;43423;46.510;6.686;2023-02-05T10:49:22;21.40;;;10.03;;
57593;SDS011;43423;46.510;6.686;2023-02-05T10:51:52;21.25;;;8.88;;
57593;SDS011;43423;46.510;6.686;2023-02-05T10:54:24;19.15;;;8.70;;
57593;SDS011;43423;46.510;6.686;2023-02-05T10:56:53;22.13;;;10.25;;
57593;SDS011;43423;46.510;6.686;2023-02-05T10:59:24;20.98;;;9.38;;
57593;SDS011;43423;46.510;6.686;2023-02-05T11:01:52;19.63;;;9.27;;
57593;SDS011;43423;46.510;6.686;2023-02-05T11:07:04;23.13;;;8.85;;
57593;SDS011;43423;46.510;6.686;2023-02-05T11:09:37;18.02;;;8.50;;
57593;SDS011;43423;46.510;6.686;2023-02-05T11:12:25;20.33;;;9.27;;
57593;SDS011;43423;46.510;6.686;2023-02-05T11:14:57;18.58;;;8.27;;
57593;SDS011;43423;46.510;6.686;2023-02-05T11:17:32;15.63;;;7.80;;
57593;SDS011;43423;46.510;6.686;2023-02-05T11:20:03;18.77;;;8.23;;
57593;SDS011;43423;46.510;6.686;2023-02-05T11:22:34;22.08;;;8.60;;
57593;SDS011;43423;46.510;6.686;2023-02-05T11:28:01;16.30;;;8.80;;
57593;SDS011;43423;46.510;6.686;2023-02-05T11:30:29;20.30;;;10.15;;
57593;SDS011;43423;46.510;6.686;2023-02-05T11:35:54;21.17;;;8.52;;
57593;SDS011;43423;46.510;6.686;2023-02-05T11:38:26;19.33;;;8.90;;
57593;SDS011;43423;46.510;6.686;2023-02-05T11:41:12;21.48;;;9.35;;
57593;SDS011;43423;46.510;6.686;2023-02-05T11:43:50;22.00;;;9.50;;
57593;SDS011;43423;46.510;6.686;2023-02-05T11:46:19;19.75;;;8.88;;
57593;SDS011;43423;46.510;6.686;2023-02-05T11:51:15;20.27;;;8.73;;
57593;SDS011;43423;46.510;6.686;2023-02-05T11:57:22;24.48;;;9.15;;
57593;SDS011;43423;46.510;6.686;2023-02-05T12:07:40;19.52;;;8.35;;
57593;SDS011;43423;46.510;6.686;2023-02-05T12:10:15;20.55;;;8.63;;
57593;SDS011;43423;46.510;6.686;2023-02-05T12:12:49;18.75;;;7.55;;
57593;SDS011;43423;46.510;6.686;2023-02-05T12:15:40;16.13;;;7.07;;
57593;SDS011;43423;46.510;6.686;2023-02-05T12:18:17;10.93;;;4.40;;
57593;SDS011;43423;46.510;6.686;2023-02-05T12:21:02;6.55;;;3.10;;
57593;SDS011;43423;46.510;6.686;2023-02-05T12:26:28;11.93;;;2.95;;
57593;SDS011;43423;46.510;6.686;2023-02-05T12:32:22;11.77;;;3.45;;
57593;SDS011;43423;46.510;6.686;2023-02-05T12:35:11;7.00;;;2.90;;
57593;SDS011;43423;46.510;6.686;2023-02-05T12:37:41;6.72;;;3.13;;
57593;SDS011;43423;46.510;6.686;2023-02-05T12:43:20;10.45;;;2.83;;
57593;SDS011;43423;46.510;6.686;2023-02-05T12:48:55;7.72;;;2.92;;
57593;SDS011;43423;46.510;6.686;2023-02-05T12:51:41;6.75;;;3.40;;
57593;SDS011;43423;46.510;6.686;2023-02-05T12:54:49;5.15;;;2.35;;
57593;SDS011;43423;46.510;6.686;2023-02-05T13:03:06;6.55;;;2.53;;
57593;SDS011;43423;46.510;6.686;2023-02-05T13:05:40;4.60;;;2.03;;
57593;SDS011;43423;46.510;6.686;2023-02-05T13:08:39;4.50;;;2.03;;
57593;SDS011;43423;46.510;6.686;2023-02-05T13:11:20;5.55;;;2.03;;
57593;SDS011;43423;46.510;6.686;2023-02-05T13:14:05;6.38;;;2.38;;
57593;SDS011;43423;46.510;6.686;2023-02-05T13:16:39;4.70;;;2.13;;
57593;SDS011;43423;46.510;6.686;2023-02-05T13:19:13;5.22;;;2.05;;
57593;SDS011;43423;46.510;6.686;2023-02-05T13:21:59;10.88;;;2.35;;
57593;SDS011;43423;46.510;6.686;2023-02-05T13:24:52;7.00;;;1.90;;
57593;SDS011;43423;46.510;6.686;2023-02-05T13:27:41;5.45;;;2.05;;
57593;SDS011;43423;46.510;6.686;2023-02-05T13:30:42;5.13;;;2.00;;
57593;SDS011;43423;46.510;6.686;2023-02-05T13:33:14;5.38;;;2.10;;
57593;SDS011;43423;46.510;6.686;2023-02-05T13:35:42;4.75;;;2.10;;
57593;SDS011;43423;46.510;6.686;2023-02-05T13:41:23;11.23;;;4.32;;
57593;SDS011;43423;46.510;6.686;2023-02-05T13:44:39;10.05;;;4.75;;
57593;SDS011;43423;46.510;6.686;2023-02-05T13:55:35;10.35;;;2.88;;
57593;SDS011;43423;46.510;6.686;2023-02-05T14:03:25;11.93;;;3.83;;
57593;SDS011;43423;46.510;6.686;2023-02-05T14:08:24;7.22;;;2.58;;
57593;SDS011;43423;46.510;6.686;2023-02-05T14:10:55;9.25;;;3.10;;
57593;SDS011;43423;46.510;6.686;2023-02-05T14:13:30;9.82;;;3.15;;
57593;SDS011;43423;46.510;6.686;2023-02-05T14:23:59;7.78;;;2.65;;
57593;SDS011;43423;46.510;6.686;2023-02-05T14:26:46;12.52;;;4.10;;
57593;SDS011;43423;46.510;6.686;2023-02-05T14:29:58;9.25;;;4.28;;
57593;SDS011;43423;46.510;6.686;2023-02-05T14:32:01;8.98;;;4.05;;
57593;SDS011;43423;46.510;6.686;2023-02-05T14:34:32;13.60;;;5.30;;
57593;SDS011;43423;46.510;6.686;2023-02-05T14:37:27;10.32;;;5.28;;
57593;SDS011;43423;46.510;6.686;2023-02-05T14:39:57;10.35;;;4.40;;
57593;SDS011;43423;46.510;6.686;2023-02-05T14:42:23;10.57;;;4.50;;
57593;SDS011;43423;46.510;6.686;2023-02-05T14:44:53;8.93;;;4.00;;
57593;SDS011;43423;46.510;6.686;2023-02-05T14:47:23;13.57;;;3.72;;
57593;SDS011;43423;46.510;6.686;2023-02-05T14:49:56;6.82;;;3.50;;
57593;SDS011;43423;46.510;6.686;2023-02-05T14:52:38;10.85;;;3.92;;
57593;SDS011;43423;46.510;6.686;2023-02-05T14:57:39;8.52;;;3.42;;
57593;SDS011;43423;46.510;6.686;2023-02-05T15:05:37;15.55;;;5.70;;
57593;SDS011;43423;46.510;6.686;2023-02-05T15:08:09;11.25;;;4.32;;
57593;SDS011;43423;46.510;6.686;2023-02-05T15:10:45;7.57;;;4.00;;
57593;SDS011;43423;46.510;6.686;2023-02-05T15:13:13;11.57;;;3.95;;
57593;SDS011;43423;46.510;6.686;2023-02-05T15:15:40;8.70;;;3.60;;
57593;SDS011;43423;46.510;6.686;2023-02-05T15:18:11;8.25;;;3.53;;
57593;SDS011;43423;46.510;6.686;2023-02-05T15:20:47;11.52;;;4.05;;
57593;SDS011;43423;46.510;6.686;2023-02-05T15:23:19;8.90;;;3.95;;
57593;SDS011;43423;46.510;6.686;2023-02-05T15:26:00;9.85;;;2.78;;
57593;SDS011;43423;46.510;6.686;2023-02-05T15:28:31;7.70;;;3.40;;
57593;SDS011;43423;46.510;6.686;2023-02-05T15:31:20;6.63;;;2.90;;
57593;SDS011;43423;46.510;6.686;2023-02-05T15:33:55;6.28;;;3.35;;
57593;SDS011;43423;46.510;6.686;2023-02-05T15:36:39;8.35;;;3.50;;
57593;SDS011;43423;46.510;6.686;2023-02-05T15:39:12;10.13;;;3.28;;
57593;SDS011;43423;46.510;6.686;2023-02-05T15:41:44;4.85;;;3.10;;
57593;SDS011;43423;46.510;6.686;2023-02-05T15:44:19;5.20;;;2.78;;
57593;SDS011;43423;46.510;6.686;2023-02-05T15:46:59;6.45;;;2.67;;
57593;SDS011;43423;46.510;6.686;2023-02-05T15:49:36;6.15;;;2.90;;
57593;SDS011;43423;46.510;6.686;2023-02-05T15:52:04;5.45;;;2.72;;
57593;SDS011;43423;46.510;6.686;2023-02-05T15:54:31;8.15;;;3.53;;
57593;SDS011;43423;46.510;6.686;2023-02-05T15:57:00;9.75;;;4.65;;
57593;SDS011;43423;46.510;6.686;2023-02-05T15:59:28;7.75;;;3.72;;
57593;SDS011;43423;46.510;6.686;2023-02-05T16:02:00;7.03;;;4.03;;
57593;SDS011;43423;46.510;6.686;2023-02-05T16:04:29;5.50;;;3.42;;
57593;SDS011;43423;46.510;6.686;2023-02-05T16:06:58;9.13;;;3.70;;
57593;SDS011;43423;46.510;6.686;2023-02-05T16:09:25;8.30;;;3.47;;
57593;SDS011;43423;46.510;6.686;2023-02-05T16:11:52;10.98;;;4.00;;
57593;SDS011;43423;46.510;6.686;2023-02-05T16:14:19;10.48;;;5.00;;
57593;SDS011;43423;46.510;6.686;2023-02-05T16:20:34;11.68;;;4.90;;
57593;SDS011;43423;46.510;6.686;2023-02-05T16:22:49;11.27;;;4.40;;
57593;SDS011;43423;46.510;6.686;2023-02-05T16:25:25;12.52;;;4.20;;
57593;SDS011;43423;46.510;6.686;2023-02-05T16:28:13;11.65;;;4.88;;
57593;SDS011;43423;46.510;6.686;2023-02-05T16:30:43;10.15;;;5.70;;
57593;SDS011;43423;46.510;6.686;2023-02-05T16:33:24;13.63;;;5.90;;
57593;SDS011;43423;46.510;6.686;2023-02-05T16:36:03;13.27;;;6.20;;
57593;SDS011;43423;46.510;6.686;2023-02-05T16:38:31;11.82;;;5.85;;
57593;SDS011;43423;46.510;6.686;2023-02-05T16:40:59;10.90;;;5.53;;
57593;SDS011;43423;46.510;6.686;2023-02-05T16:43:42;18.40;;;6.18;;
57593;SDS011;43423;46.510;6.686;2023-02-05T16:48:56;15.73;;;5.88;;
57593;SDS011;43423;46.510;6.686;2023-02-05T16:51:28;13.88;;;6.88;;
57593;SDS011;43423;46.510;6.686;2023-02-05T16:56:35;9.30;;;5.53;;
57593;SDS011;43423;46.510;6.686;2023-02-05T16:59:09;9.98;;;5.03;;
57593;SDS011;43423;46.510;6.686;2023-02-05T17:01:42;10.25;;;5.10;;
57593;SDS011;43423;46.510;6.686;2023-02-05T17:04:17;9.20;;;4.85;;
57593;SDS011;43423;46.510;6.686;2023-02-05T17:06:51;13.57;;;4.78;;
57593;SDS011;43423;46.510;6.686;2023-02-05T17:09:42;9.10;;;4.68;;
57593;SDS011;43423;46.510;6.686;2023-02-05T17:15:24;10.32;;;5.20;;
57593;SDS011;43423;46.510;6.686;2023-02-05T17:17:57;10.07;;;4.70;;
57593;SDS011;43423;46.510;6.686;2023-02-05T17:20:46;10.30;;;5.30;;
57593;SDS011;43423;46.510;6.686;2023-02-05T17:23:13;12.82;;;4.60;;
57593;SDS011;43423;46.510;6.686;2023-02-05T17:25:41;13.45;;;5.28;;